sensor_id;sensor_type;location;lat;lon;timestamp;P1;durP1;ratioP1;P2;durP2;ratioP2
59938;SDS011;45801;51.810;19.444;2022-09-27T00:00:44;28.90;;;21.50;;
59938;SDS011;45801;51.810;19.444;2022-09-27T00:03:27;29.60;;;23.60;;
59938;SDS011;45801;51.810;19.444;2022-09-27T00:06:01;34.00;;;25.40;;
59938;SDS011;45801;51.810;19.444;2022-09-27T00:08:33;32.50;;;24.50;;
59938;SDS011;45801;51.810;19.444;2022-09-27T00:11:02;30.80;;;23.00;;
59938;SDS011;45801;51.810;19.444;2022-09-27T00:13:31;32.60;;;24.90;;
59938;SDS011;45801;51.810;19.444;2022-09-27T00:15:58;31.90;;;24.10;;
59938;SDS011;45801;51.810;19.444;2022-09-27T00:18:26;32.60;;;23.70;;
59938;SDS011;45801;51.810;19.444;2022-09-27T00:20:53;27.40;;;20.70;;
59938;SDS011;45801;51.810;19.444;2022-09-27T00:23:19;28.40;;;21.80;;
59938;SDS011;45801;51.810;19.444;2022-09-27T00:25:58;27.80;;;23.10;;
59938;SDS011;45801;51.810;19.444;2022-09-27T00:28:25;28.80;;;22.50;;
59938;SDS011;45801;51.810;19.444;2022-09-27T00:30:52;29.70;;;22.70;;
59938;SDS011;45801;51.810;19.444;2022-09-27T00:33:19;28.30;;;21.90;;
59938;SDS011;45801;51.810;19.444;2022-09-27T00:35:46;28.40;;;22.60;;
59938;SDS011;45801;51.810;19.444;2022-09-27T00:38:13;29.20;;;21.90;;
59938;SDS011;45801;51.810;19.444;2022-09-27T00:40:40;29.20;;;21.40;;
59938;SDS011;45801;51.810;19.444;2022-09-27T00:43:40;27.50;;;22.70;;
59938;SDS011;45801;51.810;19.444;2022-09-27T00:46:07;28.80;;;22.40;;
59938;SDS011;45801;51.810;19.444;2022-09-27T00:48:33;27.20;;;20.90;;
59938;SDS011;45801;51.810;19.444;2022-09-27T00:51:02;26.50;;;20.70;;
59938;SDS011;45801;51.810;19.444;2022-09-27T00:53:34;27.40;;;21.70;;
59938;SDS011;45801;51.810;19.444;2022-09-27T00:56:08;29.50;;;22.60;;
59938;SDS011;45801;51.810;19.444;2022-09-27T00:58:38;29.10;;;21.70;;
59938;SDS011;45801;51.810;19.444;2022-09-27T01:01:11;26.60;;;20.80;;
59938;SDS011;45801;51.810;19.444;2022-09-27T01:06:25;26.10;;;20.70;;
59938;SDS011;45801;51.810;19.444;2022-09-27T01:08:52;25.20;;;20.30;;
59938;SDS011;45801;51.810;19.444;2022-09-27T01:20:02;23.50;;;18.60;;
59938;SDS011;45801;51.810;19.444;2022-09-27T01:29:11;25.30;;;19.10;;
59938;SDS011;45801;51.810;19.444;2022-09-27T01:39:47;26.70;;;20.10;;
59938;SDS011;45801;51.810;19.444;2022-09-27T01:42:30;26.30;;;20.00;;
59938;SDS011;45801;51.810;19.444;2022-09-27T01:45:08;25.60;;;19.10;;
59938;SDS011;45801;51.810;19.444;2022-09-27T01:47:53;28.30;;;21.70;;
59938;SDS011;45801;51.810;19.444;2022-09-27T01:50:25;26.90;;;19.80;;
59938;SDS011;45801;51.810;19.444;2022-09-27T01:52:58;23.70;;;18.30;;
59938;SDS011;45801;51.810;19.444;2022-09-27T01:55:33;26.70;;;19.40;;
59938;SDS011;45801;51.810;19.444;2022-09-27T01:58:05;25.40;;;19.70;;
59938;SDS011;45801;51.810;19.444;2022-09-27T02:00:38;28.40;;;21.40;;
59938;SDS011;45801;51.810;19.444;2022-09-27T02:03:12;26.70;;;19.70;;
59938;SDS011;45801;51.810;19.444;2022-09-27T02:05:46;25.60;;;20.00;;
59938;SDS011;45801;51.810;19.444;2022-09-27T02:11:07;27.40;;;20.10;;
59938;SDS011;45801;51.810;19.444;2022-09-27T02:13:47;25.30;;;19.60;;
59938;SDS011;45801;51.810;19.444;2022-09-27T02:19:09;29.30;;;21.20;;
59938;SDS011;45801;51.810;19.444;2022-09-27T02:24:47;27.40;;;20.30;;
59938;SDS011;45801;51.810;19.444;2022-09-27T02:27:23;26.50;;;19.90;;
59938;SDS011;45801;51.810;19.444;2022-09-27T02:30:16;28.10;;;20.80;;
59938;SDS011;45801;51.810;19.444;2022-09-27T02:32:42;28.00;;;20.60;;
59938;SDS011;45801;51.810;19.444;2022-09-27T02:35:32;30.10;;;21.60;;
59938;SDS011;45801;51.810;19.444;2022-09-27T02:37:58;28.70;;;20.80;;
59938;SDS011;45801;51.810;19.444;2022-09-27T02:40:28;26.10;;;18.70;;
59938;SDS011;45801;51.810;19.444;2022-09-27T02:42:58;28.30;;;20.70;;
59938;SDS011;45801;51.810;19.444;2022-09-27T02:45:29;30.00;;;21.50;;
59938;SDS011;45801;51.810;19.444;2022-09-27T02:48:25;28.70;;;20.30;;
59938;SDS011;45801;51.810;19.444;2022-09-27T02:51:07;28.30;;;21.20;;
59938;SDS011;45801;51.810;19.444;2022-09-27T02:57:00;29.20;;;19.50;;
59938;SDS011;45801;51.810;19.444;2022-09-27T02:59:52;28.30;;;20.50;;
59938;SDS011;45801;51.810;19.444;2022-09-27T03:02:31;28.00;;;20.50;;
59938;SDS011;45801;51.810;19.444;2022-09-27T03:05:06;28.30;;;20.80;;
59938;SDS011;45801;51.810;19.444;2022-09-27T03:07:35;26.90;;;19.50;;
59938;SDS011;45801;51.810;19.444;2022-09-27T03:10:03;31.20;;;21.90;;
59938;SDS011;45801;51.810;19.444;2022-09-27T03:12:31;28.90;;;19.90;;
59938;SDS011;45801;51.810;19.444;2022-09-27T03:14:59;30.60;;;21.80;;
59938;SDS011;45801;51.810;19.444;2022-09-27T03:17:26;27.90;;;20.70;;
59938;SDS011;45801;51.810;19.444;2022-09-27T03:19:52;29.10;;;20.00;;
59938;SDS011;45801;51.810;19.444;2022-09-27T03:22:19;29.80;;;20.90;;
59938;SDS011;45801;51.810;19.444;2022-09-27T03:24:46;28.70;;;20.10;;
59938;SDS011;45801;51.810;19.444;2022-09-27T03:27:15;25.40;;;18.10;;
59938;SDS011;45801;51.810;19.444;2022-09-27T03:29:41;27.50;;;19.00;;
59938;SDS011;45801;51.810;19.444;2022-09-27T03:32:07;27.30;;;18.80;;
59938;SDS011;45801;51.810;19.444;2022-09-27T03:34:34;26.20;;;18.70;;
59938;SDS011;45801;51.810;19.444;2022-09-27T03:37:00;29.00;;;19.30;;
59938;SDS011;45801;51.810;19.444;2022-09-27T03:39:27;29.00;;;19.30;;
59938;SDS011;45801;51.810;19.444;2022-09-27T03:41:53;24.90;;;17.30;;
59938;SDS011;45801;51.810;19.444;2022-09-27T03:44:20;28.00;;;18.60;;
59938;SDS011;45801;51.810;19.444;2022-09-27T03:46:46;26.90;;;18.60;;
59938;SDS011;45801;51.810;19.444;2022-09-27T03:49:13;27.60;;;18.70;;
59938;SDS011;45801;51.810;19.444;2022-09-27T03:51:40;24.60;;;16.80;;
59938;SDS011;45801;51.810;19.444;2022-09-27T03:54:08;26.40;;;18.00;;
59938;SDS011;45801;51.810;19.444;2022-09-27T03:56:35;27.30;;;17.40;;
59938;SDS011;45801;51.810;19.444;2022-09-27T03:59:02;24.80;;;17.70;;
59938;SDS011;45801;51.810;19.444;2022-09-27T04:01:28;28.90;;;17.20;;
59938;SDS011;45801;51.810;19.444;2022-09-27T04:03:55;27.10;;;17.70;;
59938;SDS011;45801;51.810;19.444;2022-09-27T04:06:21;26.50;;;17.30;;
59938;SDS011;45801;51.810;19.444;2022-09-27T04:08:49;27.60;;;18.60;;
59938;SDS011;45801;51.810;19.444;2022-09-27T04:11:16;27.00;;;17.50;;
59938;SDS011;45801;51.810;19.444;2022-09-27T04:13:42;25.30;;;17.70;;
59938;SDS011;45801;51.810;19.444;2022-09-27T04:16:09;26.30;;;17.90;;
59938;SDS011;45801;51.810;19.444;2022-09-27T04:18:36;26.00;;;17.80;;
59938;SDS011;45801;51.810;19.444;2022-09-27T04:21:02;26.40;;;17.40;;
59938;SDS011;45801;51.810;19.444;2022-09-27T04:23:29;25.50;;;18.10;;
59938;SDS011;45801;51.810;19.444;2022-09-27T04:25:56;25.00;;;16.60;;
59938;SDS011;45801;51.810;19.444;2022-09-27T04:28:22;24.60;;;16.70;;
59938;SDS011;45801;51.810;19.444;2022-09-27T04:30:48;22.60;;;15.40;;
59938;SDS011;45801;51.810;19.444;2022-09-27T04:33:15;26.60;;;17.60;;
59938;SDS011;45801;51.810;19.444;2022-09-27T04:35:42;23.80;;;16.60;;
59938;SDS011;45801;51.810;19.444;2022-09-27T04:38:28;26.30;;;17.40;;
59938;SDS011;45801;51.810;19.444;2022-09-27T04:40:54;25.10;;;16.40;;
59938;SDS011;45801;51.810;19.444;2022-09-27T04:43:21;25.50;;;16.70;;
59938;SDS011;45801;51.810;19.444;2022-09-27T04:45:48;25.30;;;17.80;;
59938;SDS011;45801;51.810;19.444;2022-09-27T04:48:14;26.70;;;17.90;;
59938;SDS011;45801;51.810;19.444;2022-09-27T04:50:40;26.40;;;17.10;;
59938;SDS011;45801;51.810;19.444;2022-09-27T04:53:10;25.50;;;17.30;;
59938;SDS011;45801;51.810;19.444;2022-09-27T04:55:45;24.10;;;17.40;;
59938;SDS011;45801;51.810;19.444;2022-09-27T04:58:12;24.90;;;17.20;;
59938;SDS011;45801;51.810;19.444;2022-09-27T05:00:38;23.10;;;15.50;;
59938;SDS011;45801;51.810;19.444;2022-09-27T05:03:07;24.80;;;18.10;;
59938;SDS011;45801;51.810;19.444;2022-09-27T05:05:34;25.10;;;16.10;;
59938;SDS011;45801;51.810;19.444;2022-09-27T05:08:01;25.00;;;16.60;;
59938;SDS011;45801;51.810;19.444;2022-09-27T05:10:27;24.20;;;16.70;;
59938;SDS011;45801;51.810;19.444;2022-09-27T05:12:53;25.60;;;16.60;;
59938;SDS011;45801;51.810;19.444;2022-09-27T05:15:19;23.80;;;16.20;;
59938;SDS011;45801;51.810;19.444;2022-09-27T05:17:46;23.30;;;15.80;;
59938;SDS011;45801;51.810;19.444;2022-09-27T05:20:12;24.00;;;16.30;;
59938;SDS011;45801;51.810;19.444;2022-09-27T05:22:39;26.00;;;16.60;;
59938;SDS011;45801;51.810;19.444;2022-09-27T05:25:05;23.30;;;16.00;;
59938;SDS011;45801;51.810;19.444;2022-09-27T05:27:32;27.00;;;16.30;;
59938;SDS011;45801;51.810;19.444;2022-09-27T05:29:58;22.70;;;15.90;;
59938;SDS011;45801;51.810;19.444;2022-09-27T05:32:28;20.70;;;13.90;;
59938;SDS011;45801;51.810;19.444;2022-09-27T05:34:54;24.90;;;16.50;;
59938;SDS011;45801;51.810;19.444;2022-09-27T05:37:20;23.40;;;15.50;;
59938;SDS011;45801;51.810;19.444;2022-09-27T05:39:48;24.90;;;16.00;;
59938;SDS011;45801;51.810;19.444;2022-09-27T05:42:15;23.70;;;15.40;;
59938;SDS011;45801;51.810;19.444;2022-09-27T05:44:41;24.00;;;15.20;;
59938;SDS011;45801;51.810;19.444;2022-09-27T05:47:13;22.90;;;15.10;;
59938;SDS011;45801;51.810;19.444;2022-09-27T05:49:41;21.20;;;14.60;;
59938;SDS011;45801;51.810;19.444;2022-09-27T05:52:07;22.60;;;14.40;;
59938;SDS011;45801;51.810;19.444;2022-09-27T05:54:33;22.00;;;14.80;;
59938;SDS011;45801;51.810;19.444;2022-09-27T05:57:00;22.60;;;15.60;;
59938;SDS011;45801;51.810;19.444;2022-09-27T05:59:26;22.00;;;14.90;;
59938;SDS011;45801;51.810;19.444;2022-09-27T06:01:53;22.80;;;15.20;;
59938;SDS011;45801;51.810;19.444;2022-09-27T06:04:20;24.60;;;15.50;;
59938;SDS011;45801;51.810;19.444;2022-09-27T06:06:47;26.20;;;15.00;;
59938;SDS011;45801;51.810;19.444;2022-09-27T06:09:14;26.60;;;16.40;;
59938;SDS011;45801;51.810;19.444;2022-09-27T06:11:41;24.90;;;16.10;;
59938;SDS011;45801;51.810;19.444;2022-09-27T06:14:11;25.70;;;17.30;;
59938;SDS011;45801;51.810;19.444;2022-09-27T06:16:38;25.10;;;17.00;;
59938;SDS011;45801;51.810;19.444;2022-09-27T06:19:05;24.70;;;16.10;;
59938;SDS011;45801;51.810;19.444;2022-09-27T06:21:31;25.20;;;16.70;;
59938;SDS011;45801;51.810;19.444;2022-09-27T06:23:57;25.30;;;15.40;;
59938;SDS011;45801;51.810;19.444;2022-09-27T06:26:25;24.40;;;16.10;;
59938;SDS011;45801;51.810;19.444;2022-09-27T06:28:54;26.20;;;16.40;;
59938;SDS011;45801;51.810;19.444;2022-09-27T06:31:21;23.70;;;15.30;;
59938;SDS011;45801;51.810;19.444;2022-09-27T06:33:48;24.30;;;15.60;;
59938;SDS011;45801;51.810;19.444;2022-09-27T06:36:15;24.60;;;15.50;;
59938;SDS011;45801;51.810;19.444;2022-09-27T06:38:42;24.20;;;15.20;;
59938;SDS011;45801;51.810;19.444;2022-09-27T06:41:10;24.80;;;15.00;;
59938;SDS011;45801;51.810;19.444;2022-09-27T06:43:38;24.90;;;15.90;;
59938;SDS011;45801;51.810;19.444;2022-09-27T06:46:04;22.30;;;15.00;;
59938;SDS011;45801;51.810;19.444;2022-09-27T06:48:31;22.90;;;14.50;;
59938;SDS011;45801;51.810;19.444;2022-09-27T06:50:58;22.00;;;13.70;;
59938;SDS011;45801;51.810;19.444;2022-09-27T06:53:25;21.70;;;15.30;;
59938;SDS011;45801;51.810;19.444;2022-09-27T06:55:52;21.10;;;14.80;;
59938;SDS011;45801;51.810;19.444;2022-09-27T06:58:18;20.70;;;13.60;;
59938;SDS011;45801;51.810;19.444;2022-09-27T07:01:03;21.40;;;14.70;;
59938;SDS011;45801;51.810;19.444;2022-09-27T07:03:30;21.70;;;16.00;;
59938;SDS011;45801;51.810;19.444;2022-09-27T07:06:06;22.10;;;15.30;;
59938;SDS011;45801;51.810;19.444;2022-09-27T07:08:36;23.40;;;16.40;;
59938;SDS011;45801;51.810;19.444;2022-09-27T07:11:05;23.20;;;16.30;;
59938;SDS011;45801;51.810;19.444;2022-09-27T07:13:32;23.70;;;17.10;;
59938;SDS011;45801;51.810;19.444;2022-09-27T07:16:02;25.40;;;16.60;;
59938;SDS011;45801;51.810;19.444;2022-09-27T07:18:29;26.10;;;17.00;;
59938;SDS011;45801;51.810;19.444;2022-09-27T07:20:55;27.80;;;17.80;;
59938;SDS011;45801;51.810;19.444;2022-09-27T07:23:24;21.90;;;15.60;;
59938;SDS011;45801;51.810;19.444;2022-09-27T07:25:51;22.80;;;16.10;;
59938;SDS011;45801;51.810;19.444;2022-09-27T07:28:18;22.10;;;15.60;;
59938;SDS011;45801;51.810;19.444;2022-09-27T07:30:45;23.20;;;15.80;;
59938;SDS011;45801;51.810;19.444;2022-09-27T07:33:12;23.10;;;16.10;;
59938;SDS011;45801;51.810;19.444;2022-09-27T07:35:39;24.90;;;16.80;;
59938;SDS011;45801;51.810;19.444;2022-09-27T07:38:06;25.00;;;16.70;;
59938;SDS011;45801;51.810;19.444;2022-09-27T07:40:37;23.60;;;16.10;;
59938;SDS011;45801;51.810;19.444;2022-09-27T07:43:04;19.00;;;13.40;;
59938;SDS011;45801;51.810;19.444;2022-09-27T07:45:31;20.70;;;13.00;;
59938;SDS011;45801;51.810;19.444;2022-09-27T07:47:57;20.10;;;13.50;;
59938;SDS011;45801;51.810;19.444;2022-09-27T07:50:24;21.30;;;14.00;;
59938;SDS011;45801;51.810;19.444;2022-09-27T07:52:51;21.00;;;14.90;;
59938;SDS011;45801;51.810;19.444;2022-09-27T07:55:18;23.60;;;14.50;;
59938;SDS011;45801;51.810;19.444;2022-09-27T07:57:45;21.60;;;14.70;;
59938;SDS011;45801;51.810;19.444;2022-09-27T08:00:13;21.80;;;14.20;;
59938;SDS011;45801;51.810;19.444;2022-09-27T08:02:41;20.10;;;15.10;;
59938;SDS011;45801;51.810;19.444;2022-09-27T08:05:08;19.80;;;14.10;;
59938;SDS011;45801;51.810;19.444;2022-09-27T08:07:37;19.30;;;14.00;;
59938;SDS011;45801;51.810;19.444;2022-09-27T08:10:05;22.70;;;16.10;;
59938;SDS011;45801;51.810;19.444;2022-09-27T08:12:33;21.80;;;16.20;;
59938;SDS011;45801;51.810;19.444;2022-09-27T08:17:53;23.70;;;16.80;;
59938;SDS011;45801;51.810;19.444;2022-09-27T08:20:20;22.60;;;16.40;;
59938;SDS011;45801;51.810;19.444;2022-09-27T08:22:46;25.10;;;17.20;;
59938;SDS011;45801;51.810;19.444;2022-09-27T08:25:13;25.50;;;17.60;;
59938;SDS011;45801;51.810;19.444;2022-09-27T08:27:40;25.20;;;18.50;;
59938;SDS011;45801;51.810;19.444;2022-09-27T08:30:07;24.50;;;18.20;;
59938;SDS011;45801;51.810;19.444;2022-09-27T08:32:34;25.70;;;18.30;;
59938;SDS011;45801;51.810;19.444;2022-09-27T08:35:02;24.20;;;17.00;;
59938;SDS011;45801;51.810;19.444;2022-09-27T08:37:28;21.60;;;16.80;;
59938;SDS011;45801;51.810;19.444;2022-09-27T08:39:55;23.30;;;17.90;;
59938;SDS011;45801;51.810;19.444;2022-09-27T08:45:02;29.30;;;19.10;;
59938;SDS011;45801;51.810;19.444;2022-09-27T08:50:25;25.00;;;18.60;;
59938;SDS011;45801;51.810;19.444;2022-09-27T08:55:39;27.60;;;19.60;;
59938;SDS011;45801;51.810;19.444;2022-09-27T08:58:31;26.80;;;19.30;;
59938;SDS011;45801;51.810;19.444;2022-09-27T09:01:02;26.00;;;19.40;;
59938;SDS011;45801;51.810;19.444;2022-09-27T09:03:33;25.80;;;19.10;;
59938;SDS011;45801;51.810;19.444;2022-09-27T09:08:58;24.90;;;19.40;;
59938;SDS011;45801;51.810;19.444;2022-09-27T09:17:32;26.80;;;21.10;;
59938;SDS011;45801;51.810;19.444;2022-09-27T09:20:03;28.30;;;22.50;;
59938;SDS011;45801;51.810;19.444;2022-09-27T09:22:46;29.60;;;21.30;;
59938;SDS011;45801;51.810;19.444;2022-09-27T09:30:23;25.60;;;19.40;;
59938;SDS011;45801;51.810;19.444;2022-09-27T09:33:00;26.90;;;19.50;;
59938;SDS011;45801;51.810;19.444;2022-09-27T09:38:12;21.40;;;15.80;;
59938;SDS011;45801;51.810;19.444;2022-09-27T09:40:48;21.60;;;16.60;;
59938;SDS011;45801;51.810;19.444;2022-09-27T09:46:19;21.00;;;15.30;;
59938;SDS011;45801;51.810;19.444;2022-09-27T09:48:49;24.00;;;17.30;;
59938;SDS011;45801;51.810;19.444;2022-09-27T09:51:27;20.10;;;15.90;;
59938;SDS011;45801;51.810;19.444;2022-09-27T09:54:06;23.70;;;18.60;;
59938;SDS011;45801;51.810;19.444;2022-09-27T09:56:40;21.40;;;15.90;;
59938;SDS011;45801;51.810;19.444;2022-09-27T09:59:28;25.60;;;18.70;;
59938;SDS011;45801;51.810;19.444;2022-09-27T10:02:17;24.80;;;18.20;;
59938;SDS011;45801;51.810;19.444;2022-09-27T10:04:46;25.20;;;19.50;;
59938;SDS011;45801;51.810;19.444;2022-09-27T10:07:13;27.40;;;19.70;;
59938;SDS011;45801;51.810;19.444;2022-09-27T10:09:41;23.60;;;17.80;;
59938;SDS011;45801;51.810;19.444;2022-09-27T10:12:08;23.80;;;18.00;;
59938;SDS011;45801;51.810;19.444;2022-09-27T10:14:35;23.80;;;18.80;;
59938;SDS011;45801;51.810;19.444;2022-09-27T10:17:02;23.70;;;18.20;;
59938;SDS011;45801;51.810;19.444;2022-09-27T10:19:34;23.50;;;17.60;;
59938;SDS011;45801;51.810;19.444;2022-09-27T10:24:51;21.80;;;17.40;;
59938;SDS011;45801;51.810;19.444;2022-09-27T10:27:44;23.00;;;17.30;;
59938;SDS011;45801;51.810;19.444;2022-09-27T10:30:34;23.60;;;16.10;;
59938;SDS011;45801;51.810;19.444;2022-09-27T10:33:02;20.60;;;15.00;;
59938;SDS011;45801;51.810;19.444;2022-09-27T10:35:35;18.20;;;14.00;;
59938;SDS011;45801;51.810;19.444;2022-09-27T10:40:51;23.50;;;15.40;;
59938;SDS011;45801;51.810;19.444;2022-09-27T10:43:28;22.40;;;15.20;;
59938;SDS011;45801;51.810;19.444;2022-09-27T10:48:32;19.20;;;14.20;;
59938;SDS011;45801;51.810;19.444;2022-09-27T10:51:00;18.60;;;14.60;;
59938;SDS011;45801;51.810;19.444;2022-09-27T10:53:29;17.50;;;13.00;;
59938;SDS011;45801;51.810;19.444;2022-09-27T10:55:57;17.50;;;12.40;;
59938;SDS011;45801;51.810;19.444;2022-09-27T11:00:54;12.90;;;8.50;;
59938;SDS011;45801;51.810;19.444;2022-09-27T11:03:22;12.30;;;8.30;;
59938;SDS011;45801;51.810;19.444;2022-09-27T11:05:51;15.00;;;10.00;;
59938;SDS011;45801;51.810;19.444;2022-09-27T11:13:39;12.60;;;8.00;;
59938;SDS011;45801;51.810;19.444;2022-09-27T11:18:57;12.60;;;8.00;;
59938;SDS011;45801;51.810;19.444;2022-09-27T11:30:03;12.40;;;8.90;;
59938;SDS011;45801;51.810;19.444;2022-09-27T11:32:59;12.20;;;7.30;;
59938;SDS011;45801;51.810;19.444;2022-09-27T11:46:28;11.70;;;8.00;;
59938;SDS011;45801;51.810;19.444;2022-09-27T11:54:38;12.90;;;8.20;;
59938;SDS011;45801;51.810;19.444;2022-09-27T11:57:22;10.20;;;7.60;;
59938;SDS011;45801;51.810;19.444;2022-09-27T12:02:52;9.60;;;6.70;;
59938;SDS011;45801;51.810;19.444;2022-09-27T12:11:51;9.50;;;6.60;;
59938;SDS011;45801;51.810;19.444;2022-09-27T12:17:11;9.20;;;5.90;;
59938;SDS011;45801;51.810;19.444;2022-09-27T12:19:43;11.70;;;7.00;;
59938;SDS011;45801;51.810;19.444;2022-09-27T12:22:20;10.50;;;6.20;;
59938;SDS011;45801;51.810;19.444;2022-09-27T12:24:53;10.30;;;7.20;;
59938;SDS011;45801;51.810;19.444;2022-09-27T12:27:35;12.60;;;6.00;;
59938;SDS011;45801;51.810;19.444;2022-09-27T12:30:10;11.80;;;6.50;;
59938;SDS011;45801;51.810;19.444;2022-09-27T12:35:27;10.00;;;6.10;;
59938;SDS011;45801;51.810;19.444;2022-09-27T12:40:36;10.90;;;7.40;;
59938;SDS011;45801;51.810;19.444;2022-09-27T12:43:16;9.70;;;6.90;;
59938;SDS011;45801;51.810;19.444;2022-09-27T12:48:18;10.00;;;6.10;;
59938;SDS011;45801;51.810;19.444;2022-09-27T12:51:07;11.60;;;7.40;;
59938;SDS011;45801;51.810;19.444;2022-09-27T12:56:34;11.70;;;7.60;;
59938;SDS011;45801;51.810;19.444;2022-09-27T13:11:07;10.80;;;5.90;;
59938;SDS011;45801;51.810;19.444;2022-09-27T13:13:41;10.70;;;6.70;;
59938;SDS011;45801;51.810;19.444;2022-09-27T13:16:08;12.80;;;6.70;;
59938;SDS011;45801;51.810;19.444;2022-09-27T13:21:04;10.70;;;7.60;;
59938;SDS011;45801;51.810;19.444;2022-09-27T13:31:14;12.40;;;7.90;;
59938;SDS011;45801;51.810;19.444;2022-09-27T13:33:42;12.00;;;7.60;;
59938;SDS011;45801;51.810;19.444;2022-09-27T13:41:17;11.70;;;7.70;;
59938;SDS011;45801;51.810;19.444;2022-09-27T13:44:06;11.60;;;7.50;;
59938;SDS011;45801;51.810;19.444;2022-09-27T13:46:52;12.00;;;7.10;;
59938;SDS011;45801;51.810;19.444;2022-09-27T13:49:25;10.90;;;7.20;;
59938;SDS011;45801;51.810;19.444;2022-09-27T13:51:58;10.00;;;6.20;;
59938;SDS011;45801;51.810;19.444;2022-09-27T14:00:17;9.00;;;5.70;;
59938;SDS011;45801;51.810;19.444;2022-09-27T14:05:45;10.50;;;6.30;;
59938;SDS011;45801;51.810;19.444;2022-09-27T14:08:36;12.20;;;5.70;;
59938;SDS011;45801;51.810;19.444;2022-09-27T14:11:10;10.10;;;6.20;;
59938;SDS011;45801;51.810;19.444;2022-09-27T14:13:41;10.80;;;5.90;;
59938;SDS011;45801;51.810;19.444;2022-09-27T14:16:12;11.30;;;5.50;;
59938;SDS011;45801;51.810;19.444;2022-09-27T14:18:51;10.80;;;6.30;;
59938;SDS011;45801;51.810;19.444;2022-09-27T14:21:38;11.80;;;7.80;;
59938;SDS011;45801;51.810;19.444;2022-09-27T14:27:03;13.50;;;8.30;;
59938;SDS011;45801;51.810;19.444;2022-09-27T14:29:39;12.60;;;8.30;;
59938;SDS011;45801;51.810;19.444;2022-09-27T14:32:29;11.60;;;8.90;;
59938;SDS011;45801;51.810;19.444;2022-09-27T14:35:05;14.60;;;9.70;;
59938;SDS011;45801;51.810;19.444;2022-09-27T14:37:57;13.40;;;9.90;;
59938;SDS011;45801;51.810;19.444;2022-09-27T14:40:25;14.20;;;9.10;;
59938;SDS011;45801;51.810;19.444;2022-09-27T14:42:54;12.50;;;9.40;;
59938;SDS011;45801;51.810;19.444;2022-09-27T14:45:25;12.20;;;8.80;;
59938;SDS011;45801;51.810;19.444;2022-09-27T14:47:57;15.20;;;8.90;;
59938;SDS011;45801;51.810;19.444;2022-09-27T14:50:26;13.90;;;9.80;;
59938;SDS011;45801;51.810;19.444;2022-09-27T14:52:56;13.60;;;10.80;;
59938;SDS011;45801;51.810;19.444;2022-09-27T14:55:25;14.50;;;10.70;;
59938;SDS011;45801;51.810;19.444;2022-09-27T14:57:55;14.50;;;11.30;;
59938;SDS011;45801;51.810;19.444;2022-09-27T15:00:25;14.70;;;10.60;;
59938;SDS011;45801;51.810;19.444;2022-09-27T15:02:57;14.80;;;10.60;;
59938;SDS011;45801;51.810;19.444;2022-09-27T15:05:29;14.10;;;10.70;;
59938;SDS011;45801;51.810;19.444;2022-09-27T15:07:58;14.80;;;11.00;;
59938;SDS011;45801;51.810;19.444;2022-09-27T15:10:28;14.60;;;10.60;;
59938;SDS011;45801;51.810;19.444;2022-09-27T15:12:57;16.90;;;11.90;;
59938;SDS011;45801;51.810;19.444;2022-09-27T15:15:27;14.20;;;10.70;;
59938;SDS011;45801;51.810;19.444;2022-09-27T15:17:58;15.30;;;11.70;;
59938;SDS011;45801;51.810;19.444;2022-09-27T15:20:27;15.60;;;11.40;;
59938;SDS011;45801;51.810;19.444;2022-09-27T15:22:57;14.50;;;11.20;;
59938;SDS011;45801;51.810;19.444;2022-09-27T15:27:57;16.30;;;12.20;;
59938;SDS011;45801;51.810;19.444;2022-09-27T15:30:32;16.00;;;11.70;;
59938;SDS011;45801;51.810;19.444;2022-09-27T15:33:00;15.00;;;12.00;;
59938;SDS011;45801;51.810;19.444;2022-09-27T15:35:31;16.50;;;12.90;;
59938;SDS011;45801;51.810;19.444;2022-09-27T15:45:57;16.90;;;13.80;;
59938;SDS011;45801;51.810;19.444;2022-09-27T15:48:28;18.10;;;14.70;;
59938;SDS011;45801;51.810;19.444;2022-09-27T15:50:57;18.50;;;14.00;;
59938;SDS011;45801;51.810;19.444;2022-09-27T15:56:00;28.10;;;13.90;;
59938;SDS011;45801;51.810;19.444;2022-09-27T15:58:28;53.60;;;16.50;;
59938;SDS011;45801;51.810;19.444;2022-09-27T16:00:56;28.70;;;15.00;;
59938;SDS011;45801;51.810;19.444;2022-09-27T16:03:24;22.60;;;14.60;;
59938;SDS011;45801;51.810;19.444;2022-09-27T16:05:52;17.80;;;13.00;;
59938;SDS011;45801;51.810;19.444;2022-09-27T16:08:21;21.50;;;14.60;;
59938;SDS011;45801;51.810;19.444;2022-09-27T16:10:55;18.80;;;14.80;;
59938;SDS011;45801;51.810;19.444;2022-09-27T16:13:25;17.90;;;14.20;;
59938;SDS011;45801;51.810;19.444;2022-09-27T16:15:52;17.40;;;14.10;;
59938;SDS011;45801;51.810;19.444;2022-09-27T16:18:19;19.20;;;14.00;;
59938;SDS011;45801;51.810;19.444;2022-09-27T16:20:45;15.50;;;12.70;;
59938;SDS011;45801;51.810;19.444;2022-09-27T16:28:48;11.50;;;4.90;;
59938;SDS011;45801;51.810;19.444;2022-09-27T16:31:15;7.60;;;3.80;;
59938;SDS011;45801;51.810;19.444;2022-09-27T16:33:46;8.50;;;3.50;;
59938;SDS011;45801;51.810;19.444;2022-09-27T16:36:14;8.30;;;3.70;;
59938;SDS011;45801;51.810;19.444;2022-09-27T16:38:51;8.70;;;2.80;;
59938;SDS011;45801;51.810;19.444;2022-09-27T16:41:19;8.60;;;2.40;;
59938;SDS011;45801;51.810;19.444;2022-09-27T16:43:48;6.80;;;2.60;;
59938;SDS011;45801;51.810;19.444;2022-09-27T16:46:17;7.60;;;3.20;;
59938;SDS011;45801;51.810;19.444;2022-09-27T16:48:45;8.10;;;2.70;;
59938;SDS011;45801;51.810;19.444;2022-09-27T16:51:13;7.60;;;2.90;;
59938;SDS011;45801;51.810;19.444;2022-09-27T16:54:04;7.00;;;2.90;;
59938;SDS011;45801;51.810;19.444;2022-09-27T16:56:33;6.30;;;2.80;;
59938;SDS011;45801;51.810;19.444;2022-09-27T16:59:02;6.40;;;2.70;;
59938;SDS011;45801;51.810;19.444;2022-09-27T17:01:36;9.20;;;3.10;;
59938;SDS011;45801;51.810;19.444;2022-09-27T17:04:02;8.30;;;3.20;;
59938;SDS011;45801;51.810;19.444;2022-09-27T17:06:30;6.90;;;3.00;;
59938;SDS011;45801;51.810;19.444;2022-09-27T17:09:03;9.00;;;3.40;;
59938;SDS011;45801;51.810;19.444;2022-09-27T17:11:30;6.20;;;2.40;;
59938;SDS011;45801;51.810;19.444;2022-09-27T17:14:01;6.60;;;2.30;;
59938;SDS011;45801;51.810;19.444;2022-09-27T17:16:28;5.40;;;1.70;;
59938;SDS011;45801;51.810;19.444;2022-09-27T17:18:55;4.20;;;1.70;;
59938;SDS011;45801;51.810;19.444;2022-09-27T17:21:21;5.90;;;1.90;;
59938;SDS011;45801;51.810;19.444;2022-09-27T17:23:49;5.80;;;1.70;;
59938;SDS011;45801;51.810;19.444;2022-09-27T17:26:20;5.80;;;2.00;;
59938;SDS011;45801;51.810;19.444;2022-09-27T17:28:48;5.00;;;1.90;;
59938;SDS011;45801;51.810;19.444;2022-09-27T17:31:16;6.10;;;2.10;;
59938;SDS011;45801;51.810;19.444;2022-09-27T17:33:44;5.80;;;2.20;;
59938;SDS011;45801;51.810;19.444;2022-09-27T17:36:13;7.80;;;3.10;;
59938;SDS011;45801;51.810;19.444;2022-09-27T17:38:43;4.70;;;2.00;;
59938;SDS011;45801;51.810;19.444;2022-09-27T17:41:11;8.00;;;2.60;;
59938;SDS011;45801;51.810;19.444;2022-09-27T17:43:40;6.00;;;2.30;;
59938;SDS011;45801;51.810;19.444;2022-09-27T17:46:18;6.80;;;2.10;;